Time;durP1;ratioP1;P1;durP2;ratioP2;P2;SDS_P1;SDS_P2;PMS_P1;PMS_P2;Temp;Humidity;BMP_temperature;BMP_pressure;BME280_temperature;BME280_humidity;BME280_pressure;Samples;Min_cycle;Max_cycle;Signal;HPM_P1;HPM_P2
2022/04/06 00:01:26;;;;;;;5.00;4.47;;;9.30;99.90;;;;;;5053470;28;20467;-72
2022/04/06 00:03:52;;;;;;;7.35;5.15;;;9.30;99.90;;;;;;5054320;28;20116;-73
2022/04/06 00:06:18;;;;;;;6.03;4.45;;;9.30;99.90;;;;;;5048914;28;20029;-73
2022/04/06 00:08:43;;;;;;;6.35;4.95;;;9.30;99.90;;;;;;5034240;28;20382;-73
2022/04/06 00:11:09;;;;;;;6.68;5.03;;;9.30;99.90;;;;;;5034340;28;20041;-73
2022/04/06 00:13:35;;;;;;;5.88;4.78;;;9.20;99.90;;;;;;5034219;28;20025;-72
2022/04/06 00:16:01;;;;;;;6.00;5.40;;;9.20;99.90;;;;;;5035962;28;20032;-73
2022/04/06 00:18:27;;;;;;;6.40;4.85;;;9.20;99.90;;;;;;5052921;28;20087;-73
2022/04/06 00:20:52;;;;;;;7.43;4.63;;;9.20;99.90;;;;;;5054174;28;20458;-73
2022/04/06 00:23:18;;;;;;;6.97;4.97;;;9.20;99.90;;;;;;5053403;28;20465;-73
2022/04/06 00:25:44;;;;;;;6.93;4.85;;;9.30;99.90;;;;;;5053541;28;20032;-73
2022/04/06 00:28:09;;;;;;;5.40;4.35;;;9.30;99.90;;;;;;5035322;28;20033;-73
2022/04/06 00:30:35;;;;;;;4.85;4.15;;;9.30;99.90;;;;;;5044249;28;20078;-73
2022/04/06 00:33:00;;;;;;;6.97;4.68;;;9.30;99.90;;;;;;5033657;28;20494;-73
2022/04/06 00:35:29;;;;;;;6.18;4.32;;;9.30;99.90;;;;;;5048341;28;20029;-73
2022/04/06 00:37:59;;;;;;;4.00;3.60;;;9.30;99.90;;;;;;5037380;28;20030;-73
2022/04/06 00:40:25;;;;;;;5.95;4.65;;;9.30;99.90;;;;;;5033171;28;20029;-73
2022/04/06 00:42:53;;;;;;;6.40;4.70;;;9.30;99.90;;;;;;5033598;28;20445;-73
2022/04/06 00:45:19;;;;;;;6.22;4.40;;;9.40;99.90;;;;;;5041662;28;20017;-73
2022/04/06 00:47:45;;;;;;;5.68;4.60;;;9.40;99.90;;;;;;5043182;28;20030;-73
2022/04/06 00:50:10;;;;;;;5.72;4.20;;;9.40;99.90;;;;;;5033607;28;20052;-73
2022/04/06 00:52:37;;;;;;;5.60;4.30;;;9.40;99.90;;;;;;5048254;28;20041;-73
2022/04/06 00:55:03;;;;;;;5.32;4.82;;;9.50;99.90;;;;;;5053412;28;20029;-74
2022/04/06 00:57:29;;;;;;;7.57;4.53;;;9.50;99.90;;;;;;5050691;28;20036;-74
2022/04/06 00:59:58;;;;;;;5.93;4.78;;;9.40;99.90;;;;;;5053775;28;20036;-73
2022/04/06 01:02:25;;;;;;;4.97;4.25;;;9.40;99.90;;;;;;5052961;28;20048;-73
2022/04/06 01:04:51;;;;;;;5.88;4.45;;;9.50;99.90;;;;;;5037013;28;20041;-73
2022/04/06 01:07:18;;;;;;;4.85;4.13;;;9.50;99.90;;;;;;5033068;28;20034;-73
2022/04/06 01:09:44;;;;;;;6.63;4.80;;;9.50;99.90;;;;;;5034622;28;20029;-73
2022/04/06 01:12:10;;;;;;;6.72;4.28;;;9.50;99.90;;;;;;5033695;28;20136;-73
2022/04/06 01:14:38;;;;;;;5.30;3.95;;;9.50;99.90;;;;;;5033081;28;20025;-73
2022/04/06 01:17:09;;;;;;;5.55;4.25;;;9.50;99.90;;;;;;5044345;28;20486;-73
2022/04/06 01:19:34;;;;;;;4.93;4.22;;;9.50;99.90;;;;;;5047765;28;20026;-73
2022/04/06 01:22:05;;;;;;;4.55;4.15;;;9.40;99.90;;;;;;5052968;28;20028;-73
2022/04/06 01:24:31;;;;;;;6.57;4.85;;;9.50;99.90;;;;;;5040547;28;20521;-73
2022/04/06 01:27:00;;;;;;;5.57;4.00;;;9.40;99.90;;;;;;5045682;28;20020;-74
2022/04/06 01:29:25;;;;;;;4.32;3.92;;;9.40;99.90;;;;;;5052177;28;20498;-73
2022/04/06 01:31:51;;;;;;;4.25;3.85;;;9.40;99.90;;;;;;5052861;28;20124;-73
2022/04/06 01:34:17;;;;;;;6.80;4.07;;;9.40;99.90;;;;;;5051703;28;20035;-72
2022/04/06 01:36:42;;;;;;;5.93;4.32;;;9.40;99.90;;;;;;5039920;28;20037;-73
2022/04/06 01:39:08;;;;;;;4.90;4.38;;;9.40;99.90;;;;;;5032385;28;20120;-72
2022/04/06 01:41:37;;;;;;;5.32;4.65;;;9.40;99.90;;;;;;5031883;28;20029;-72
2022/04/06 01:44:06;;;;;;;6.00;4.40;;;9.40;99.90;;;;;;5036279;28;20026;-73
2022/04/06 01:46:33;;;;;;;9.32;4.63;;;9.40;99.90;;;;;;5049582;28;20029;-73
2022/04/06 01:54:55;;;;;;;5.13;4.63;;;9.40;99.90;;;;;;5014766;28;20113;-73
2022/04/06 01:57:23;;;;;;;6.32;4.35;;;9.40;99.90;;;;;;5028506;28;20180;-73
2022/04/06 01:59:49;;;;;;;5.25;4.22;;;9.50;99.90;;;;;;5032527;28;20061;-72
2022/04/06 02:02:19;;;;;;;5.90;4.32;;;9.40;99.90;;;;;;5031822;28;20080;-72
2022/04/06 02:04:44;;;;;;;5.32;4.13;;;9.40;99.90;;;;;;5032382;28;20033;-72
2022/04/06 02:07:10;;;;;;;7.15;4.68;;;9.40;99.90;;;;;;5038501;28;20033;-72
2022/04/06 02:09:39;;;;;;;6.80;4.43;;;9.40;99.90;;;;;;5031514;28;20048;-73
2022/04/06 02:12:06;;;;;;;5.13;4.22;;;9.40;99.90;;;;;;5032103;28;20037;-73
2022/04/06 02:14:32;;;;;;;5.40;4.30;;;9.40;99.90;;;;;;5043118;28;20032;-74
2022/04/06 02:16:58;;;;;;;7.72;4.53;;;9.40;99.90;;;;;;5047545;28;20025;-73
2022/04/06 02:19:24;;;;;;;4.90;4.40;;;9.40;99.90;;;;;;5031036;28;20414;-73
2022/04/06 02:21:49;;;;;;;6.13;4.75;;;9.40;99.90;;;;;;5041922;28;20394;-73
2022/04/06 02:24:15;;;;;;;7.45;5.47;;;9.40;99.90;;;;;;5046581;28;20469;-73
2022/04/06 02:26:41;;;;;;;6.53;4.60;;;9.30;99.90;;;;;;5051066;28;20022;-72
2022/04/06 02:29:06;;;;;;;5.70;4.65;;;9.40;99.90;;;;;;5050641;28;20485;-73
2022/04/06 02:31:32;;;;;;;6.45;5.10;;;9.40;99.90;;;;;;5031692;28;20077;-73
2022/04/06 02:33:59;;;;;;;6.75;4.88;;;9.40;99.90;;;;;;5031680;28;20091;-73
2022/04/06 02:36:24;;;;;;;5.30;4.57;;;9.40;99.90;;;;;;5030816;28;20530;-73
2022/04/06 02:38:50;;;;;;;7.75;4.13;;;9.40;99.90;;;;;;5051848;28;20105;-73
2022/04/06 02:41:16;;;;;;;5.40;4.28;;;9.40;99.90;;;;;;5033186;28;20057;-73
2022/04/06 02:43:41;;;;;;;6.13;4.20;;;9.30;99.90;;;;;;5032125;28;20390;-73
2022/04/06 02:46:07;;;;;;;7.63;4.53;;;9.40;99.90;;;;;;5047332;28;20075;-73
2022/04/06 02:48:33;;;;;;;5.95;4.90;;;9.30;99.90;;;;;;5050413;28;20100;-73
2022/04/06 02:50:59;;;;;;;7.68;5.20;;;9.30;99.90;;;;;;5051619;28;20049;-74
2022/04/06 02:53:25;;;;;;;4.85;4.18;;;9.30;99.90;;;;;;5050696;28;20425;-72
2022/04/06 02:55:50;;;;;;;6.90;4.75;;;9.30;99.90;;;;;;5044395;28;20108;-73
2022/04/06 02:58:17;;;;;;;10.05;5.18;;;9.30;99.90;;;;;;5031857;28;20026;-73
2022/04/06 03:00:42;;;;;;;9.63;4.85;;;9.30;99.90;;;;;;5029858;28;20167;-73
2022/04/06 03:03:08;;;;;;;5.80;4.28;;;9.30;99.90;;;;;;5033968;28;20116;-73
2022/04/06 03:05:34;;;;;;;8.43;5.15;;;9.30;99.90;;;;;;5050400;28;20420;-73
2022/04/06 03:08:00;;;;;;;5.97;4.75;;;9.30;99.90;;;;;;5039298;28;20116;-72
2022/04/06 03:10:26;;;;;;;6.40;4.80;;;9.30;99.90;;;;;;5030753;28;20490;-73
2022/04/06 03:12:52;;;;;;;8.40;5.03;;;9.20;99.90;;;;;;5036793;28;20067;-72
2022/04/06 03:15:17;;;;;;;9.27;5.40;;;9.30;99.90;;;;;;5051274;28;20025;-76
2022/04/06 03:17:43;;;;;;;7.85;4.65;;;9.20;99.90;;;;;;5041660;28;20026;-73
2022/04/06 03:20:13;;;;;;;5.90;4.43;;;9.20;99.90;;;;;;5043427;28;20117;-72
2022/04/06 03:22:39;;;;;;;7.07;5.63;;;9.30;99.90;;;;;;5050600;28;20674;-73
2022/04/06 03:25:06;;;;;;;5.55;4.70;;;9.20;99.90;;;;;;5037446;28;20112;-72
2022/04/06 03:27:32;;;;;;;8.00;4.82;;;9.30;99.90;;;;;;5030684;28;20581;-73
2022/04/06 03:29:58;;;;;;;6.30;5.00;;;9.30;99.90;;;;;;5031198;28;20033;-72
2022/04/06 03:32:24;;;;;;;6.90;5.60;;;9.30;99.90;;;;;;5030304;28;20390;-72
2022/04/06 03:34:49;;;;;;;5.30;4.47;;;9.30;99.90;;;;;;5031205;28;20095;-73
2022/04/06 03:37:15;;;;;;;6.13;4.97;;;9.20;99.90;;;;;;5031021;28;20025;-72
2022/04/06 03:39:40;;;;;;;5.47;4.63;;;9.20;99.90;;;;;;5047082;28;20032;-72
2022/04/06 03:42:06;;;;;;;7.78;5.40;;;9.20;99.90;;;;;;5051150;28;20061;-72
2022/04/06 03:44:32;;;;;;;5.38;4.70;;;9.20;99.90;;;;;;5036894;28;20467;-72
2022/04/06 03:46:57;;;;;;;7.03;5.22;;;9.20;99.90;;;;;;5053403;28;20083;-73
2022/04/06 03:49:23;;;;;;;6.30;5.30;;;9.20;99.90;;;;;;5052990;28;20070;-72
2022/04/06 03:51:49;;;;;;;6.80;5.53;;;9.30;99.90;;;;;;5054702;28;20045;-72
2022/04/06 03:54:15;;;;;;;7.60;4.90;;;9.20;99.90;;;;;;5045461;28;20031;-72
2022/04/06 03:56:40;;;;;;;6.03;4.82;;;9.20;99.90;;;;;;5053705;28;20025;-72
2022/04/06 03:59:06;;;;;;;7.13;5.53;;;9.20;99.90;;;;;;5054496;28;20529;-73
2022/04/06 04:01:35;;;;;;;6.90;5.30;;;9.20;99.90;;;;;;5053560;28;20155;-72
2022/04/06 04:04:01;;;;;;;8.18;5.45;;;9.20;99.90;;;;;;5044577;28;20036;-72
2022/04/06 04:06:26;;;;;;;7.40;5.22;;;9.20;99.90;;;;;;5046787;28;20050;-72
2022/04/06 04:08:52;;;;;;;9.52;5.22;;;9.30;99.90;;;;;;5050584;28;20025;-73
2022/04/06 04:11:17;;;;;;;7.88;4.78;;;9.30;99.90;;;;;;5044162;28;20036;-72
2022/04/06 04:13:43;;;;;;;8.73;5.55;;;9.20;99.90;;;;;;5050496;28;20071;-72
2022/04/06 04:16:09;;;;;;;8.07;5.32;;;9.20;99.90;;;;;;5033106;28;20044;-73
2022/04/06 04:18:34;;;;;;;7.70;4.93;;;9.30;99.90;;;;;;5033500;28;20025;-72
2022/04/06 04:23:44;;;;;;;7.40;5.15;;;9.20;99.90;;;;;;5054740;28;20036;-72
2022/04/06 04:26:10;;;;;;;7.07;4.78;;;9.20;99.90;;;;;;5046247;28;20025;-72
2022/04/06 04:28:35;;;;;;;5.72;5.07;;;9.20;99.90;;;;;;5051399;28;20451;-72
2022/04/06 04:31:01;;;;;;;5.72;4.63;;;9.20;99.90;;;;;;5053675;28;20033;-72
2022/04/06 04:33:27;;;;;;;8.52;5.63;;;9.20;99.90;;;;;;5053215;28;20029;-72
2022/04/06 04:35:53;;;;;;;8.40;5.13;;;9.20;99.90;;;;;;5054096;28;20463;-72
2022/04/06 04:38:18;;;;;;;6.30;4.72;;;9.20;99.90;;;;;;5044021;28;20083;-73
2022/04/06 04:40:44;;;;;;;5.85;4.90;;;9.20;99.90;;;;;;5033243;28;20021;-72
2022/04/06 04:43:09;;;;;;;7.95;4.97;;;9.20;99.90;;;;;;5036405;28;20029;-73
2022/04/06 04:45:35;;;;;;;5.35;4.63;;;9.20;99.90;;;;;;5044115;28;20033;-73
2022/04/06 04:48:01;;;;;;;5.63;5.07;;;9.30;99.90;;;;;;5053343;28;20024;-72
2022/04/06 04:50:26;;;;;;;5.15;4.65;;;9.20;99.90;;;;;;5043006;28;20127;-73
2022/04/06 04:52:52;;;;;;;8.02;5.25;;;9.20;99.90;;;;;;5033339;28;20033;-73
2022/04/06 04:55:18;;;;;;;6.82;4.70;;;9.20;99.90;;;;;;5033069;28;20037;-72
2022/04/06 04:57:44;;;;;;;10.23;5.38;;;9.20;99.90;;;;;;5031149;28;20049;-72
2022/04/06 05:00:11;;;;;;;7.28;4.60;;;9.20;99.90;;;;;;5020849;28;20489;-72
2022/04/06 05:02:37;;;;;;;5.45;4.43;;;9.20;99.90;;;;;;5024654;28;20037;-72
2022/04/06 05:05:06;;;;;;;5.85;4.85;;;9.20;99.90;;;;;;5013343;28;20379;-72
2022/04/06 05:07:37;;;;;;;7.93;5.13;;;9.20;99.90;;;;;;5012820;28;20022;-73
2022/04/06 05:10:07;;;;;;;6.28;5.00;;;9.20;99.90;;;;;;5014924;28;20431;-72
2022/04/06 05:12:33;;;;;;;6.55;5.40;;;9.20;99.90;;;;;;5018527;28;20103;-73
2022/04/06 05:15:02;;;;;;;6.30;4.85;;;9.20;99.90;;;;;;5017248;28;20126;-72
2022/04/06 05:17:28;;;;;;;8.07;5.22;;;9.20;99.90;;;;;;5034072;28;20104;-73
2022/04/06 05:19:54;;;;;;;7.82;5.50;;;9.20;99.90;;;;;;5032965;28;20382;-72
2022/04/06 05:22:20;;;;;;;5.47;4.47;;;9.20;99.90;;;;;;5021718;28;20037;-72
2022/04/06 05:24:46;;;;;;;8.23;5.13;;;9.20;99.90;;;;;;5032570;28;20025;-73
2022/04/06 05:27:12;;;;;;;10.60;5.47;;;9.20;99.90;;;;;;5033082;28;20467;-74
2022/04/06 05:29:37;;;;;;;6.28;4.85;;;9.20;99.90;;;;;;5031978;28;20033;-73
2022/04/06 05:32:04;;;;;;;6.63;4.50;;;9.20;99.90;;;;;;5025180;28;20045;-72
2022/04/06 05:34:30;;;;;;;10.35;5.53;;;9.20;99.90;;;;;;5031282;28;20483;-72
2022/04/06 05:36:56;;;;;;;10.32;6.00;;;9.20;99.90;;;;;;5024314;28;20052;-72
2022/04/06 05:39:22;;;;;;;6.78;5.38;;;9.20;99.90;;;;;;5032727;28;20034;-72
2022/04/06 05:41:49;;;;;;;10.38;5.13;;;9.20;99.90;;;;;;5032035;28;20031;-72
2022/04/06 05:44:16;;;;;;;9.23;5.20;;;9.30;99.90;;;;;;5024171;28;20034;-73
2022/04/06 05:46:42;;;;;;;7.40;5.03;;;9.30;99.90;;;;;;5031952;28;20033;-73
2022/04/06 05:49:08;;;;;;;6.93;5.10;;;9.30;99.90;;;;;;5016940;28;20078;-73
2022/04/06 05:51:34;;;;;;;5.65;4.75;;;9.40;99.90;;;;;;5011436;28;20046;-73
2022/04/06 05:54:03;;;;;;;6.30;4.82;;;9.40;99.90;;;;;;5013541;28;20152;-73
2022/04/06 05:56:30;;;;;;;6.53;5.00;;;9.50;99.90;;;;;;5011706;28;20033;-74
2022/04/06 05:58:56;;;;;;;6.60;5.45;;;9.50;99.90;;;;;;5012655;28;20040;-76
2022/04/06 06:01:22;;;;;;;8.07;6.07;;;9.60;99.90;;;;;;5012221;28;20104;-72
2022/04/06 06:03:49;;;;;;;8.85;5.22;;;9.60;99.90;;;;;;5016757;28;20037;-72
2022/04/06 06:06:16;;;;;;;8.15;5.80;;;9.60;99.90;;;;;;4995316;28;20383;-72
2022/04/06 06:08:42;;;;;;;9.40;6.00;;;9.70;99.90;;;;;;5010847;28;20036;-73
2022/04/06 06:11:08;;;;;;;10.25;6.00;;;9.70;99.90;;;;;;5012394;28;20025;-72
2022/04/06 06:13:34;;;;;;;8.43;5.63;;;9.80;99.90;;;;;;5013691;28;20036;-75
2022/04/06 06:16:00;;;;;;;8.77;5.53;;;9.90;99.90;;;;;;5012043;28;20047;-69
2022/04/06 06:18:27;;;;;;;21.90;6.88;;;9.90;99.90;;;;;;5011434;28;20030;-72
2022/04/06 06:20:53;;;;;;;10.45;5.60;;;10.00;99.90;;;;;;5023737;28;20029;-71
2022/04/06 06:23:19;;;;;;;9.45;5.28;;;10.10;99.90;;;;;;5024634;28;20038;-71
2022/04/06 06:25:45;;;;;;;6.95;4.95;;;10.10;99.90;;;;;;5013326;28;20033;-70
2022/04/06 06:28:10;;;;;;;9.35;5.53;;;10.10;99.90;;;;;;5024585;28;20041;-71
2022/04/06 06:30:36;;;;;;;9.75;5.43;;;10.20;99.90;;;;;;5012910;28;20442;-72
2022/04/06 06:33:02;;;;;;;7.25;5.30;;;10.20;99.90;;;;;;5012257;28;20041;-72
2022/04/06 06:35:28;;;;;;;7.38;5.05;;;10.30;99.90;;;;;;5011286;28;20026;-72
2022/04/06 06:37:56;;;;;;;8.10;5.43;;;10.30;99.90;;;;;;5027284;28;20100;-70
2022/04/06 06:40:23;;;;;;;7.55;5.20;;;10.40;99.90;;;;;;5020413;28;20022;-71
2022/04/06 06:42:49;;;;;;;6.88;4.97;;;10.40;99.90;;;;;;5011341;28;20364;-71
2022/04/06 06:45:15;;;;;;;6.47;5.13;;;10.50;99.90;;;;;;5020062;28;20105;-72
2022/04/06 06:47:41;;;;;;;5.47;4.57;;;10.60;99.90;;;;;;5016947;28;20037;-74
2022/04/06 06:50:11;;;;;;;5.32;4.60;;;10.60;99.90;;;;;;5021818;28;20049;-73
2022/04/06 06:52:37;;;;;;;7.50;4.72;;;10.60;99.90;;;;;;5046193;28;20104;-72
2022/04/06 06:55:07;;;;;;;5.00;4.15;;;10.70;99.90;;;;;;5049467;28;20547;-72
2022/04/06 06:57:33;;;;;;;;;;;10.70;99.90;;;;;;5051903;28;20033;-72
2022/04/06 06:59:59;;;;;;;5.47;4.30;;;10.90;99.90;;;;;;5051624;28;19913;-71
2022/04/06 07:02:25;;;;;;;6.10;3.92;;;10.90;99.90;;;;;;5052564;28;20558;-71
2022/04/06 07:04:51;;;;;;;6.18;3.90;;;10.90;99.90;;;;;;5049568;28;20444;-73
2022/04/06 07:07:17;;;;;;;5.45;3.97;;;11.00;99.90;;;;;;5051852;28;20100;-73
2022/04/06 07:09:43;;;;;;;6.90;3.55;;;11.00;99.90;;;;;;5035378;28;20029;-73
2022/04/06 07:12:10;;;;;;;4.50;3.30;;;11.20;99.90;;;;;;5030963;28;20091;-74
2022/04/06 07:14:36;;;;;;;4.35;3.35;;;11.20;99.90;;;;;;5045373;28;20475;-73
2022/04/06 07:17:02;;;;;;;4.68;3.13;;;11.30;99.90;;;;;;5046414;28;20033;-73
2022/04/06 07:19:28;;;;;;;6.20;3.33;;;11.40;99.90;;;;;;5031240;28;20079;-73
2022/04/06 07:21:54;;;;;;;2.85;2.55;;;;;;;;;;5038145;28;20474;-72
2022/04/06 07:24:20;;;;;;;4.18;2.80;;;11.60;99.90;;;;;;5041746;28;20030;-73
2022/04/06 07:26:46;;;;;;;4.38;2.42;;;11.80;99.90;;;;;;5035645;28;20048;-73
2022/04/06 07:29:14;;;;;;;5.93;2.80;;;;;;;;;;5034498;28;20065;-72
2022/04/06 07:31:41;;;;;;;3.88;2.65;;;;;;;;;;5038006;28;20030;-73
2022/04/06 07:34:07;;;;;;;4.43;2.85;;;;;;;;;;5049426;28;20021;-73
2022/04/06 07:36:33;;;;;;;2.83;2.53;;;;;;;;;;5044516;28;20052;-72
2022/04/06 07:39:04;;;;;;;6.35;2.42;;;;;;;;;;5041711;28;20048;-72
2022/04/06 07:41:30;;;;;;;4.55;2.15;;;;;;;;;;5049175;28;20390;-72
2022/04/06 07:43:56;;;;;;;4.55;2.30;;;12.20;99.90;;;;;;5037359;28;20028;-72
2022/04/06 07:46:23;;;;;;;3.63;2.22;;;12.10;99.90;;;;;;5047490;28;20040;-72
2022/04/06 07:48:49;;;;;;;4.13;2.78;;;12.00;99.90;;;;;;5057316;28;20032;-73
2022/04/06 07:51:15;;;;;;;4.53;2.15;;;11.90;99.90;;;;;;5035430;28;20050;-74
2022/04/06 07:53:41;;;;;;;3.92;2.47;;;12.00;99.90;;;;;;5037484;28;20592;-73
2022/04/06 07:56:06;;;;;;;4.15;1.95;;;12.10;99.90;;;;;;5035294;28;20065;-73
2022/04/06 07:58:33;;;;;;;4.30;2.20;;;12.20;99.90;;;;;;5039696;28;20045;-74
2022/04/06 08:01:01;;;;;;;2.83;2.08;;;12.40;99.90;;;;;;5036529;28;20041;-72
2022/04/06 08:03:26;;;;;;;2.20;2.00;;;12.50;99.90;;;;;;5036236;28;20057;-74
2022/04/06 08:05:52;;;;;;;2.85;1.90;;;12.60;99.90;;;;;;5045078;28;20328;-74
2022/04/06 08:08:18;;;;;;;1.85;1.75;;;12.70;99.90;;;;;;5034775;28;20534;-74
2022/04/06 08:10:43;;;;;;;2.40;1.75;;;12.80;99.90;;;;;;5034255;28;20035;-71
2022/04/06 08:13:09;;;;;;;2.13;1.55;;;12.90;99.90;;;;;;5038699;28;20021;-73
2022/04/06 08:15:35;;;;;;;3.60;1.23;;;12.90;99.90;;;;;;5035362;28;20038;-73
2022/04/06 08:18:00;;;;;;;2.17;1.50;;;12.90;99.90;;;;;;5041416;28;20021;-73
2022/04/06 08:20:26;;;;;;;2.28;1.73;;;13.00;99.90;;;;;;5055107;28;20024;-73
2022/04/06 08:22:52;;;;;;;2.20;1.67;;;13.20;99.90;;;;;;5043718;28;20028;-74
2022/04/06 08:25:18;;;;;;;3.95;1.40;;;13.30;99.90;;;;;;5037525;28;20402;-74
2022/04/06 08:27:44;;;;;;;2.33;1.30;;;13.30;99.90;;;;;;5033957;28;20025;-74
2022/04/06 08:30:12;;;;;;;1.38;1.10;;;13.50;99.90;;;;;;5047586;28;20030;-73
2022/04/06 08:32:38;;;;;;;2.42;1.13;;;13.60;99.90;;;;;;5049562;28;20110;-74
2022/04/06 08:35:05;;;;;;;2.50;1.20;;;13.70;99.90;;;;;;5053876;28;20510;-72
2022/04/06 08:37:32;;;;;;;1.67;1.13;;;;;;;;;;5032909;28;20034;-72
2022/04/06 08:39:59;;;;;;;1.83;0.98;;;13.90;99.90;;;;;;5047786;28;20017;-73
2022/04/06 08:42:31;;;;;;;1.33;1.13;;;14.00;99.90;;;;;;5053850;28;20394;-73
2022/04/06 08:44:58;;;;;;;0.80;0.80;;;;;;;;;;5047829;28;20474;-73
2022/04/06 08:47:25;;;;;;;0.70;0.70;;;14.00;99.90;;;;;;5047607;28;20018;-72
2022/04/06 08:49:52;;;;;;;1.45;0.70;;;14.00;99.90;;;;;;5046414;28;20144;-73
2022/04/06 08:52:18;;;;;;;1.95;0.93;;;14.00;99.90;;;;;;5037282;28;20110;-74
2022/04/06 08:54:44;;;;;;;3.75;1.00;;;14.10;99.90;;;;;;5036485;28;20120;-74
2022/04/06 08:57:10;;;;;;;2.35;0.90;;;14.10;99.90;;;;;;5033872;28;20033;-72
2022/04/06 08:59:36;;;;;;;1.83;1.17;;;14.00;99.90;;;;;;5033288;28;20084;-72
2022/04/06 09:02:01;;;;;;;0.77;0.45;;;14.00;99.90;;;;;;5041843;28;20037;-72
2022/04/06 09:04:31;;;;;;;2.25;0.50;;;14.00;99.00;;;;;;5033687;28;20040;-73
2022/04/06 09:07:06;;;;;;;1.38;0.60;;;14.10;99.90;;;;;;5047451;28;20025;-71
2022/04/06 09:09:32;;;;;;;0.57;0.50;;;14.10;99.90;;;;;;5052859;28;20025;-71
2022/04/06 09:12:06;;;;;;;1.05;0.50;;;14.20;99.50;;;;;;5037629;28;20034;-72
2022/04/06 09:14:33;;;;;;;0.82;0.60;;;14.30;99.10;;;;;;5041128;28;20163;-71
2022/04/06 09:17:06;;;;;;;0.57;0.50;;;14.40;98.20;;;;;;5032702;28;20562;-72
2022/04/06 09:19:37;;;;;;;0.88;0.45;;;14.70;97.40;;;;;;5051209;28;20068;-72
2022/04/06 09:22:05;;;;;;;;;;;14.80;96.50;;;;;;5053162;28;20041;-72
2022/04/06 09:24:30;;;;;;;0.45;0.45;;;14.90;95.80;;;;;;5052387;28;19916;-72
2022/04/06 09:26:57;;;;;;;0.85;0.43;;;15.00;94.70;;;;;;5050915;28;20032;-72
2022/04/06 09:29:23;;;;;;;1.70;0.40;;;15.10;94.10;;;;;;5052621;28;20029;-72
2022/04/06 09:31:49;;;;;;;0.50;0.40;;;15.10;93.90;;;;;;5051929;28;20044;-72
2022/04/06 09:34:15;;;;;;;6.43;0.85;;;15.20;93.10;;;;;;5046794;28;20107;-72
2022/04/06 09:36:41;;;;;;;1.42;0.40;;;15.10;92.20;;;;;;5043305;28;20057;-72
2022/04/06 09:39:07;;;;;;;2.85;0.95;;;15.10;92.10;;;;;;5054112;28;20025;-72
2022/04/06 09:41:34;;;;;;;3.30;0.52;;;14.90;94.80;;;;;;5052433;28;20037;-72
2022/04/06 09:47:38;;;;;;;1.95;0.70;;;14.80;92.90;;;;;;5044567;28;20466;-72
2022/04/06 09:50:12;;;;;;;4.40;0.50;;;14.70;93.80;;;;;;5051647;28;20274;-72
2022/04/06 09:52:38;;;;;;;5.53;0.85;;;14.80;92.40;;;;;;5039423;28;20093;-72
2022/04/06 09:55:09;;;;;;;1.88;0.45;;;14.80;91.40;;;;;;5044004;28;20429;-72
2022/04/06 09:57:52;;;;;;;0.35;0.35;;;14.80;91.50;;;;;;5044071;28;20546;-72
2022/04/06 10:00:23;;;;;;;0.85;0.30;;;14.80;91.60;;;;;;5032662;28;20033;-73
2022/04/06 10:03:07;;;;;;;2.70;0.40;;;14.90;91.30;;;;;;5031326;28;20125;-72
2022/04/06 10:05:35;;;;;;;0.22;0.20;;;15.00;91.40;;;;;;5032505;28;20513;-72
2022/04/06 10:08:05;;;;;;;0.30;0.30;;;15.20;90.50;;;;;;5044086;28;20025;-72
2022/04/06 10:10:32;;;;;;;0.20;0.20;;;15.30;90.60;;;;;;5053747;28;20083;-72
2022/04/06 10:12:59;;;;;;;1.73;0.40;;;15.30;90.60;;;;;;5051702;28;20032;-71
2022/04/06 10:15:25;;;;;;;0.90;0.40;;;15.40;90.30;;;;;;5046622;28;20030;-73
2022/04/06 10:17:52;;;;;;;0.75;0.25;;;15.50;89.20;;;;;;5042158;28;20036;-72
2022/04/06 10:20:28;;;;;;;4.95;0.28;;;15.50;87.30;;;;;;5031841;28;20064;-72
2022/04/06 10:23:14;;;;;;;0.75;0.35;;;15.40;86.20;;;;;;5033628;28;20215;-74
2022/04/06 10:26:06;;;;;;;0.30;0.22;;;15.40;86.30;;;;;;5038879;28;20116;-73
2022/04/06 10:28:33;;;;;;;0.20;0.20;;;15.40;87.30;;;;;;5033048;28;20079;-72
2022/04/06 10:31:16;;;;;;;0.60;0.30;;;15.40;86.90;;;;;;5045600;28;20037;-73
2022/04/06 10:33:42;;;;;;;1.58;0.70;;;15.60;87.80;;;;;;5044174;28;20041;-73
2022/04/06 10:36:18;;;;;;;0.38;0.30;;;15.80;86.10;;;;;;5035946;28;20079;-72
2022/04/06 10:39:06;;;;;;;2.47;0.20;;;16.00;85.20;;;;;;5050740;28;20036;-72
2022/04/06 10:41:38;;;;;;;0.40;0.30;;;;;;;;;;5050744;28;20029;-72
2022/04/06 10:44:04;;;;;;;0.20;0.20;;;16.40;85.10;;;;;;5049718;28;20025;-72
2022/04/06 10:46:40;;;;;;;0.30;0.30;;;16.50;83.20;;;;;;5032881;28;20175;-73
2022/04/06 10:49:06;;;;;;;1.15;0.60;;;16.70;82.00;;;;;;5047718;28;20076;-73
2022/04/06 10:51:38;;;;;;;1.65;0.30;;;16.90;81.80;;;;;;5037125;28;20470;-73
2022/04/06 10:54:13;;;;;;;1.67;0.30;;;17.30;79.00;;;;;;5032155;28;20025;-73
2022/04/06 10:56:52;;;;;;;1.55;0.30;;;17.50;76.00;;;;;;5045061;28;20044;-73
2022/04/06 10:59:19;;;;;;;0.20;0.20;;;17.70;90.90;;;;;;5055232;28;20037;-73
2022/04/06 11:01:51;;;;;;;1.38;0.30;;;17.80;80.40;;;;;;5034377;28;20552;-72
2022/04/06 11:04:23;;;;;;;0.20;0.20;;;17.50;73.40;;;;;;5038406;28;20022;-72
2022/04/06 11:06:57;;;;;;;0.45;0.20;;;17.60;73.60;;;;;;5043868;28;20034;-72
2022/04/06 11:12:14;;;;;;;0.25;0.10;;;17.40;74.30;;;;;;5054992;28;20529;-73
2022/04/06 11:14:42;;;;;;;0.88;0.40;;;17.50;72.50;;;;;;5054513;28;20025;-72
2022/04/06 11:17:48;;;;;;;0.30;0.30;;;17.70;72.30;;;;;;5038723;28;20075;-72
2022/04/06 11:20:19;;;;;;;0.20;0.17;;;17.90;71.40;;;;;;5035460;28;20113;-73
2022/04/06 11:22:56;;;;;;;0.60;0.30;;;18.10;69.50;;;;;;5034299;28;20037;-72
2022/04/06 11:25:24;;;;;;;0.30;0.30;;;18.10;70.40;;;;;;5034980;28;20033;-72
2022/04/06 11:27:50;;;;;;;3.13;0.32;;;18.10;70.40;;;;;;5034409;28;20030;-74
2022/04/06 11:30:21;;;;;;;0.65;0.30;;;18.10;70.10;;;;;;5038290;28;20029;-73
2022/04/06 11:32:58;;;;;;;3.05;0.40;;;18.10;70.20;;;;;;5052071;28;20041;-73
2022/04/06 11:35:33;;;;;;;1.08;0.40;;;18.20;70.20;;;;;;5051783;28;20021;-72
2022/04/06 11:38:00;;;;;;;0.60;0.30;;;18.40;70.20;;;;;;5047977;28;20342;-73
2022/04/06 11:40:27;;;;;;;2.38;0.50;;;18.70;68.80;;;;;;5055100;28;20033;-73
2022/04/06 11:42:58;;;;;;;3.03;0.50;;;19.00;67.20;;;;;;5042568;28;20033;-72
2022/04/06 11:45:24;;;;;;;;;;;19.00;65.80;;;;;;5043057;28;20112;-72
2022/04/06 11:47:58;;;;;;;0.63;0.60;;;18.80;66.70;;;;;;5038156;28;19925;-71
2022/04/06 11:50:39;;;;;;;2.05;0.40;;;18.60;67.90;;;;;;5054340;28;20506;-73
2022/04/06 11:53:15;;;;;;;1.52;0.45;;;18.40;67.60;;;;;;5036927;28;20073;-72
2022/04/06 11:55:48;;;;;;;3.58;0.82;;;18.00;67.60;;;;;;5035459;28;20087;-71
2022/04/06 11:58:32;;;;;;;4.15;0.70;;;17.90;69.10;;;;;;5054398;28;20036;-72
2022/04/06 12:01:07;;;;;;;2.33;0.40;;;18.20;68.90;;;;;;5042486;28;20048;-72
2022/04/06 12:03:34;;;;;;;0.50;0.40;;;18.30;67.80;;;;;;5034360;28;20017;-73
2022/04/06 12:06:01;;;;;;;2.65;0.40;;;18.80;66.40;;;;;;5050932;28;20051;-72
2022/04/06 12:08:27;;;;;;;3.13;0.52;;;19.00;66.10;;;;;;5051053;28;20386;-73
2022/04/06 12:10:58;;;;;;;2.22;0.30;;;18.90;65.50;;;;;;5050322;28;20021;-72
2022/04/06 12:13:28;;;;;;;1.77;0.40;;;18.60;66.00;;;;;;5054055;28;20041;-73
2022/04/06 12:15:55;;;;;;;1.15;0.30;;;18.40;67.10;;;;;;5052627;28;20025;-73
2022/04/06 12:18:22;;;;;;;0.45;0.32;;;18.30;66.30;;;;;;5045651;28;20463;-73
2022/04/06 12:20:49;;;;;;;0.93;0.30;;;18.50;67.20;;;;;;5046505;28;20025;-75
2022/04/06 12:23:16;;;;;;;1.17;0.50;;;18.90;63.70;;;;;;5044369;28;20040;-73
2022/04/06 12:25:43;;;;;;;0.73;0.30;;;19.20;62.40;;;;;;5048288;28;20025;-72
2022/04/06 12:28:19;;;;;;;1.23;0.43;;;19.60;61.20;;;;;;5040071;28;20025;-73
2022/04/06 12:30:57;;;;;;;0.52;0.30;;;19.80;60.30;;;;;;5033295;28;20471;-72
2022/04/06 12:33:42;;;;;;;0.73;0.22;;;;;;;;;;5044262;28;20041;-72
2022/04/06 12:36:23;;;;;;;2.25;0.20;;;21.00;57.00;;;;;;5042415;28;20032;-73
2022/04/06 12:39:15;;;;;;;5.32;0.30;;;21.50;57.40;;;;;;5052918;28;20130;-72
2022/04/06 12:41:53;;;;;;;0.20;0.20;;;20.90;56.20;;;;;;5049340;28;20033;-72
2022/04/06 12:44:19;;;;;;;0.63;0.20;;;20.90;56.20;;;;;;5040257;28;20024;-73
2022/04/06 12:46:46;;;;;;;2.03;0.57;;;20.90;55.80;;;;;;5036268;28;20028;-72
2022/04/06 12:49:32;;;;;;;0.47;0.47;;;21.00;55.90;;;;;;5051268;28;20036;-73
2022/04/06 12:52:17;;;;;;;0.85;0.38;;;21.20;55.20;;;;;;5052521;28;20048;-73
2022/04/06 12:55:03;;;;;;;2.05;0.30;;;21.10;54.40;;;;;;5052382;28;20263;-72
2022/04/06 12:57:31;;;;;;;2.10;0.20;;;21.00;55.10;;;;;;5053447;28;20025;-73
2022/04/06 12:59:56;;;;;;;4.50;0.40;;;20.50;55.60;;;;;;5046854;28;20104;-73
2022/04/06 13:02:23;;;;;;;2.78;0.40;;;20.50;55.90;;;;;;5041697;28;20113;-73
2022/04/06 13:04:50;;;;;;;0.32;0.28;;;20.70;56.00;;;;;;5028023;28;20227;-73
2022/04/06 13:07:15;;;;;;;2.35;0.40;;;20.70;57.10;;;;;;5034798;28;20030;-73
2022/04/06 13:09:55;;;;;;;2.03;0.30;;;20.70;56.60;;;;;;5049441;28;20113;-73
2022/04/06 13:12:32;;;;;;;3.20;0.40;;;20.50;57.10;;;;;;5047788;28;20055;-73
2022/04/06 13:14:59;;;;;;;0.30;0.30;;;20.40;56.70;;;;;;5043653;28;20060;-73